createdAt,value
2023-03-06T00:00:56.392Z,4.72
2023-03-06T00:03:27.628Z,4.88
2023-03-06T00:05:57.151Z,4.90
2023-03-06T00:08:25.093Z,5.07
2023-03-06T00:10:51.771Z,5.47
2023-03-06T00:13:20.555Z,5.68
2023-03-06T00:15:48.966Z,5.93
2023-03-06T00:18:15.721Z,5.45
2023-03-06T00:20:43.766Z,6.22
2023-03-06T00:23:11.685Z,6.28
2023-03-06T00:25:42.601Z,5.50
2023-03-06T00:28:09.690Z,6.50
2023-03-06T00:30:36.847Z,6.30
2023-03-06T00:33:03.795Z,6.78
2023-03-06T00:35:30.583Z,6.38
2023-03-06T00:37:59.618Z,6.15
2023-03-06T00:40:26.558Z,7.03
2023-03-06T00:42:53.454Z,6.43
2023-03-06T00:45:20.421Z,6.38
2023-03-06T00:47:47.112Z,6.13
2023-03-06T00:50:14.853Z,5.55
2023-03-06T00:52:42.031Z,5.85
2023-03-06T00:55:09.954Z,6.53
2023-03-06T00:57:36.945Z,6.40
2023-03-06T01:00:05.462Z,6.28
2023-03-06T01:02:32.658Z,6.90
2023-03-06T01:04:59.586Z,6.45
2023-03-06T01:07:27.804Z,7.22
2023-03-06T01:09:54.584Z,6.97
2023-03-06T01:12:23.467Z,7.07
2023-03-06T01:14:51.085Z,7.00
2023-03-06T01:17:17.881Z,6.82
2023-03-06T01:19:44.687Z,6.70
2023-03-06T01:22:13.922Z,7.15
2023-03-06T01:24:40.894Z,7.25
2023-03-06T01:27:07.867Z,6.88
2023-03-06T01:29:34.738Z,6.60
2023-03-06T01:32:01.569Z,7.20
2023-03-06T01:34:28.631Z,6.80
2023-03-06T01:36:55.392Z,7.00
2023-03-06T01:39:22.204Z,7.18
2023-03-06T01:41:48.931Z,7.28
2023-03-06T01:44:16.228Z,7.05
2023-03-06T01:46:46.385Z,6.50
2023-03-06T01:49:20.997Z,6.97
2023-03-06T01:51:57.378Z,7.10
2023-03-06T01:54:30.891Z,6.40
2023-03-06T01:57:03.943Z,6.65
2023-03-06T01:59:32.950Z,6.70
2023-03-06T02:02:01.718Z,6.53
2023-03-06T02:04:29.503Z,6.93
2023-03-06T02:07:01.088Z,6.72
2023-03-06T02:09:30.927Z,6.85
2023-03-06T02:11:58.148Z,7.43
2023-03-06T02:14:25.501Z,7.30
2023-03-06T02:16:52.430Z,7.18
2023-03-06T02:19:35.679Z,7.40
2023-03-06T02:22:03.414Z,7.10
2023-03-06T02:24:56.642Z,6.65
2023-03-06T02:27:25.036Z,7.53
2023-03-06T02:29:54.804Z,7.82
2023-03-06T02:32:21.989Z,7.00
2023-03-06T02:34:55.764Z,7.72
2023-03-06T02:37:23.919Z,9.68
2023-03-06T02:40:03.804Z,8.88
2023-03-06T02:42:31.071Z,8.65
2023-03-06T02:45:00.857Z,8.55
2023-03-06T02:47:27.605Z,10.02
2023-03-06T02:49:54.518Z,9.63
2023-03-06T02:52:21.384Z,9.07
2023-03-06T02:54:48.177Z,8.70
2023-03-06T02:57:15.546Z,8.93
2023-03-06T02:59:42.600Z,10.23
2023-03-06T03:02:10.264Z,9.43
2023-03-06T03:04:37.091Z,9.57
2023-03-06T03:07:04.604Z,12.88
2023-03-06T03:09:36.732Z,13.63
2023-03-06T03:12:06.222Z,13.73
2023-03-06T03:14:33.679Z,14.85
2023-03-06T03:17:02.250Z,13.55
2023-03-06T03:19:29.050Z,14.38
2023-03-06T03:21:56.107Z,15.43
2023-03-06T03:24:24.053Z,14.93
2023-03-06T03:26:50.909Z,14.95
2023-03-06T03:29:20.067Z,14.63
2023-03-06T03:31:48.074Z,14.65
2023-03-06T03:34:15.965Z,16.40
2023-03-06T03:36:43.622Z,15.93
2023-03-06T03:39:11.999Z,16.08
2023-03-06T03:41:39.246Z,16.27
2023-03-06T03:44:08.382Z,14.98
2023-03-06T03:46:35.657Z,16.00
2023-03-06T03:49:04.717Z,15.30
2023-03-06T03:51:32.293Z,14.82
2023-03-06T03:54:00.044Z,14.07
2023-03-06T03:56:30.045Z,13.73
2023-03-06T03:59:02.846Z,13.68
2023-03-06T04:01:38.394Z,13.88
2023-03-06T04:04:06.553Z,14.05
2023-03-06T04:06:33.620Z,15.85
2023-03-06T04:09:00.552Z,15.30
2023-03-06T04:11:27.583Z,15.93
2023-03-06T04:13:54.897Z,14.88
2023-03-06T04:16:21.710Z,15.85
2023-03-06T04:18:50.590Z,15.50
2023-03-06T04:21:17.473Z,15.20
2023-03-06T04:23:44.244Z,17.35
2023-03-06T04:26:11.695Z,16.48
2023-03-06T04:28:38.690Z,15.85
2023-03-06T04:31:05.908Z,16.50
2023-03-06T04:33:32.741Z,16.00
2023-03-06T04:35:59.801Z,17.00
2023-03-06T04:38:30.752Z,16.73
2023-03-06T04:40:57.739Z,16.83
2023-03-06T04:43:24.624Z,16.83
2023-03-06T04:45:51.433Z,17.00
2023-03-06T04:48:18.616Z,15.93
2023-03-06T04:50:45.570Z,16.50
2023-03-06T04:53:14.468Z,16.33
2023-03-06T04:55:41.357Z,16.45
2023-03-06T04:58:08.128Z,16.30
2023-03-06T05:00:34.927Z,16.42
2023-03-06T05:03:02.302Z,16.83
2023-03-06T05:05:29.942Z,16.15
2023-03-06T05:07:56.867Z,15.02
2023-03-06T05:10:23.841Z,16.05
2023-03-06T05:12:50.709Z,15.43
2023-03-06T05:15:17.898Z,16.42
2023-03-06T05:17:46.042Z,15.57
2023-03-06T05:20:13.926Z,15.02
2023-03-06T05:22:40.704Z,15.85
2023-03-06T05:25:07.848Z,14.88
2023-03-06T05:27:34.937Z,15.77
2023-03-06T05:30:01.776Z,15.70
2023-03-06T05:32:29.200Z,15.35
2023-03-06T05:34:56.080Z,15.73
2023-03-06T05:37:23.304Z,15.13
2023-03-06T05:39:50.898Z,14.32
2023-03-06T05:42:18.350Z,14.05
2023-03-06T05:44:45.461Z,14.02
2023-03-06T05:47:12.736Z,13.85
2023-03-06T05:49:39.769Z,14.70
2023-03-06T05:52:07.940Z,14.50
2023-03-06T05:54:36.629Z,13.80
2023-03-06T05:57:04.902Z,13.20
2023-03-06T05:59:33.063Z,12.55
2023-03-06T06:02:01.275Z,13.13
2023-03-06T06:04:28.600Z,13.52
2023-03-06T06:06:57.467Z,13.63
2023-03-06T06:09:25.765Z,12.68
2023-03-06T06:11:58.716Z,12.55
2023-03-06T06:14:25.573Z,12.60
2023-03-06T06:16:53.281Z,13.18
2023-03-06T06:19:20.957Z,31.83
2023-03-06T06:21:52.402Z,11.52
2023-03-06T06:24:21.703Z,21.08
2023-03-06T06:26:54.057Z,12.65
2023-03-06T06:29:22.041Z,17.02
2023-03-06T06:31:48.947Z,12.57
2023-03-06T06:34:15.818Z,14.80
2023-03-06T06:36:42.560Z,22.27
2023-03-06T06:39:11.310Z,44.85
2023-03-06T06:41:56.964Z,11.25
2023-03-06T06:44:25.100Z,10.60
2023-03-06T06:47:24.196Z,34.38
2023-03-06T06:49:39.556Z,13.23
2023-03-06T06:52:07.194Z,26.65
2023-03-06T06:54:34.711Z,9.70
2023-03-06T06:57:01.647Z,10.20
2023-03-06T06:59:28.456Z,9.68
2023-03-06T07:01:55.209Z,9.10
2023-03-06T07:04:21.974Z,9.57
2023-03-06T07:06:48.788Z,9.07
2023-03-06T07:09:16.294Z,9.85
2023-03-06T07:11:43.064Z,8.38
2023-03-06T07:14:09.974Z,8.95
2023-03-06T07:16:36.747Z,8.73
2023-03-06T07:19:03.488Z,8.60
2023-03-06T07:21:30.197Z,7.97
2023-03-06T07:23:57.705Z,8.57
2023-03-06T07:26:28.096Z,8.32
2023-03-06T07:28:55.182Z,8.10
2023-03-06T07:31:24.850Z,8.25
2023-03-06T07:33:53.418Z,8.43
2023-03-06T07:36:21.592Z,8.23
2023-03-06T07:38:48.404Z,8.35
2023-03-06T07:41:16.426Z,7.88
2023-03-06T07:43:45.243Z,7.88
2023-03-06T07:46:14.260Z,8.10
2023-03-06T07:48:42.511Z,7.38
2023-03-06T07:51:16.202Z,7.78
2023-03-06T07:53:43.420Z,6.70
2023-03-06T07:56:11.790Z,6.82
2023-03-06T07:58:41.909Z,7.10
2023-03-06T08:01:11.881Z,6.75
2023-03-06T08:03:38.894Z,7.07
2023-03-06T08:06:09.939Z,6.63
2023-03-06T08:08:39.353Z,6.85
2023-03-06T08:11:08.193Z,6.72
2023-03-06T08:13:35.584Z,6.70
2023-03-06T08:16:03.364Z,6.47
2023-03-06T08:18:30.323Z,6.85
2023-03-06T08:21:03.124Z,6.63
2023-03-06T08:23:30.274Z,7.63
2023-03-06T08:26:02.876Z,8.68
2023-03-06T08:28:29.652Z,8.32
2023-03-06T08:30:57.355Z,8.30
2023-03-06T08:33:24.788Z,8.77
2023-03-06T08:35:52.466Z,9.35
2023-03-06T08:38:19.290Z,10.15
2023-03-06T08:40:45.971Z,10.20
2023-03-06T08:43:14.389Z,10.18
2023-03-06T08:45:41.290Z,11.02
2023-03-06T08:48:08.121Z,9.95
2023-03-06T08:50:34.987Z,9.75
2023-03-06T08:53:01.843Z,9.65
2023-03-06T08:55:28.613Z,9.20
2023-03-06T08:57:55.433Z,10.02
2023-03-06T09:00:22.413Z,10.65
2023-03-06T09:02:49.206Z,9.50
2023-03-06T09:05:16.027Z,10.20
2023-03-06T09:07:42.879Z,11.13
2023-03-06T09:10:14.959Z,10.68
2023-03-06T09:12:50.601Z,10.82
2023-03-06T09:15:20.374Z,10.18
2023-03-06T09:17:47.885Z,9.77
2023-03-06T09:20:15.314Z,11.13
2023-03-06T09:22:42.523Z,10.13
2023-03-06T09:25:11.063Z,9.85
2023-03-06T09:27:37.852Z,10.05
2023-03-06T09:30:05.286Z,10.02
2023-03-06T09:32:32.452Z,9.73
2023-03-06T09:35:00.631Z,10.45
2023-03-06T09:37:27.374Z,8.75
2023-03-06T09:39:54.093Z,9.15
2023-03-06T09:42:23.436Z,9.60
2023-03-06T09:44:56.918Z,9.88
2023-03-06T09:47:54.709Z,8.60
2023-03-06T09:50:46.163Z,9.15
2023-03-06T09:53:38.396Z,9.70
2023-03-06T09:56:17.673Z,9.95
2023-03-06T09:58:48.623Z,9.80
2023-03-06T10:01:26.880Z,9.30
2023-03-06T10:04:22.015Z,9.20
2023-03-06T10:06:53.094Z,9.30
2023-03-06T10:09:25.769Z,9.68
2023-03-06T10:11:59.098Z,8.45
2023-03-06T10:14:48.960Z,8.30
2023-03-06T10:17:23.823Z,8.05
2023-03-06T10:19:51.405Z,8.07
2023-03-06T10:22:33.120Z,8.60
2023-03-06T10:25:27.956Z,7.18
2023-03-06T10:28:18.734Z,8.30
2023-03-06T10:30:55.509Z,7.22
2023-03-06T10:33:29.619Z,7.63
2023-03-06T10:35:56.981Z,7.57
2023-03-06T10:38:37.381Z,8.20
2023-03-06T10:41:13.011Z,7.47
2023-03-06T10:43:40.887Z,7.53
2023-03-06T10:46:09.911Z,7.85
2023-03-06T10:48:40.808Z,7.68
2023-03-06T10:51:22.095Z,8.65
2023-03-06T10:53:50.485Z,11.20
2023-03-06T10:56:34.925Z,8.35
2023-03-06T10:59:20.048Z,10.38
2023-03-06T11:01:52.067Z,8.95
2023-03-06T11:04:34.669Z,11.65
2023-03-06T11:07:05.558Z,10.52
2023-03-06T11:09:35.611Z,11.75
2023-03-06T11:12:23.005Z,16.55
2023-03-06T11:15:08.272Z,12.32
2023-03-06T11:17:58.889Z,12.95
2023-03-06T11:20:52.053Z,11.80
2023-03-06T11:23:39.213Z,11.60
2023-03-06T11:26:20.008Z,11.13
2023-03-06T11:29:06.666Z,10.25
2023-03-06T11:32:09.748Z,10.20
2023-03-06T11:34:53.271Z,9.98
2023-03-06T11:37:31.910Z,10.05
2023-03-06T11:40:16.133Z,8.25
2023-03-06T11:42:52.722Z,9.30
2023-03-06T11:45:28.597Z,8.80
2023-03-06T11:47:55.366Z,7.70
2023-03-06T11:50:34.473Z,7.20
2023-03-06T11:53:04.960Z,5.32
2023-03-06T11:55:45.022Z,5.50
2023-03-06T11:58:40.248Z,5.47
2023-03-06T12:01:32.864Z,6.75
2023-03-06T12:04:05.528Z,7.40
2023-03-06T12:06:55.164Z,7.20
2023-03-06T12:09:31.552Z,8.40
2023-03-06T12:12:25.613Z,8.10
2023-03-06T12:15:07.572Z,7.90
2023-03-06T12:18:00.643Z,8.60
2023-03-06T12:20:39.489Z,9.60
2023-03-06T12:23:18.167Z,8.40
2023-03-06T12:25:57.594Z,8.68
2023-03-06T12:28:42.415Z,9.80
2023-03-06T12:31:50.818Z,9.07
2023-03-06T12:34:35.275Z,8.50
2023-03-06T12:37:36.874Z,8.15
2023-03-06T12:40:14.185Z,7.70
2023-03-06T12:42:52.592Z,7.60
2023-03-06T12:45:29.677Z,6.93
2023-03-06T12:47:57.165Z,6.50
2023-03-06T12:50:33.296Z,6.18
2023-03-06T12:53:06.186Z,5.80
2023-03-06T12:55:54.071Z,6.90
2023-03-06T12:58:32.612Z,6.28
2023-03-06T13:01:37.264Z,6.15
2023-03-06T13:04:26.167Z,5.53
2023-03-06T13:07:27.717Z,5.25
2023-03-06T13:10:08.755Z,4.70
2023-03-06T13:12:56.453Z,4.38
2023-03-06T13:15:42.605Z,4.63
2023-03-06T13:18:21.670Z,4.18
2023-03-06T13:20:52.926Z,3.50
2023-03-06T13:23:38.250Z,3.85
2023-03-06T13:26:24.126Z,3.00
2023-03-06T13:28:55.001Z,3.13
2023-03-06T13:31:34.068Z,2.72
2023-03-06T13:34:03.578Z,2.30
2023-03-06T13:36:39.742Z,3.10
2023-03-06T13:39:11.105Z,3.33
2023-03-06T13:41:54.790Z,2.10
2023-03-06T13:44:24.520Z,1.63
2023-03-06T13:47:06.295Z,1.88
2023-03-06T13:49:34.441Z,1.77
2023-03-06T13:52:18.118Z,2.20
2023-03-06T13:55:22.219Z,2.10
2023-03-06T13:58:22.734Z,2.35
2023-03-06T14:01:12.970Z,2.00
2023-03-06T14:04:09.019Z,2.00
2023-03-06T14:06:48.152Z,1.73
2023-03-06T14:09:28.247Z,1.50
2023-03-06T14:12:05.688Z,1.80
2023-03-06T14:14:38.279Z,1.70
2023-03-06T14:17:05.504Z,1.67
2023-03-06T14:19:37.938Z,1.70
2023-03-06T14:22:06.998Z,1.80
2023-03-06T14:24:38.048Z,2.10
2023-03-06T14:27:05.086Z,1.85
2023-03-06T14:29:33.445Z,2.20
2023-03-06T14:32:01.283Z,2.15
2023-03-06T14:34:37.467Z,2.30
2023-03-06T14:37:07.614Z,2.70
2023-03-06T14:39:38.057Z,2.30
2023-03-06T14:42:08.707Z,2.35
2023-03-06T14:44:35.660Z,2.17
2023-03-06T14:47:29.238Z,2.65
2023-03-06T14:50:35.139Z,2.20
2023-03-06T14:53:24.478Z,2.53
2023-03-06T14:55:57.991Z,2.75
2023-03-06T14:58:45.663Z,3.00
2023-03-06T15:01:13.536Z,2.25
2023-03-06T15:03:48.376Z,2.67
2023-03-06T15:06:24.877Z,2.78
2023-03-06T15:09:02.781Z,2.83
2023-03-06T15:12:02.202Z,3.00
2023-03-06T15:14:40.746Z,3.05
2023-03-06T15:17:19.756Z,2.80
2023-03-06T15:19:48.603Z,2.38
2023-03-06T15:22:32.378Z,2.50
2023-03-06T15:25:19.868Z,2.13
2023-03-06T15:27:52.690Z,2.58
2023-03-06T15:30:34.184Z,2.17
2023-03-06T15:33:37.953Z,2.50
2023-03-06T15:36:06.808Z,2.13
2023-03-06T15:38:43.653Z,2.30
2023-03-06T15:41:24.025Z,2.33
2023-03-06T15:43:51.111Z,2.50
2023-03-06T15:46:18.057Z,2.30
2023-03-06T15:48:56.218Z,2.30
2023-03-06T15:51:23.480Z,2.22
2023-03-06T15:53:52.979Z,2.30
2023-03-06T15:56:25.957Z,2.33
2023-03-06T15:58:54.032Z,2.30
2023-03-06T16:01:20.890Z,2.50
2023-03-06T16:03:47.687Z,2.63
2023-03-06T16:06:19.618Z,3.05
2023-03-06T16:08:46.694Z,3.13
2023-03-06T16:11:41.892Z,2.70
2023-03-06T16:14:23.408Z,2.60
2023-03-06T16:16:52.308Z,2.58
2023-03-06T16:19:28.999Z,2.80
2023-03-06T16:21:56.951Z,3.00
2023-03-06T16:24:25.993Z,2.60
2023-03-06T16:26:54.907Z,2.65
2023-03-06T16:29:24.800Z,2.95
2023-03-06T16:31:51.676Z,2.60
2023-03-06T16:34:21.324Z,3.10
2023-03-06T16:36:49.372Z,2.92
2023-03-06T16:39:21.314Z,3.10
2023-03-06T16:41:49.387Z,2.78
2023-03-06T16:44:16.440Z,3.15
2023-03-06T16:46:45.853Z,3.03
2023-03-06T16:49:30.901Z,2.72
2023-03-06T16:51:58.088Z,2.75
2023-03-06T16:54:26.177Z,3.00
2023-03-06T16:56:52.961Z,2.85
2023-03-06T16:59:19.769Z,3.08
2023-03-06T17:01:46.609Z,2.63
2023-03-06T17:04:13.348Z,3.78
2023-03-06T17:06:41.794Z,4.30
2023-03-06T17:09:10.802Z,3.05
2023-03-06T17:11:42.969Z,2.92
2023-03-06T17:14:09.692Z,5.30
2023-03-06T17:16:40.266Z,14.57
2023-03-06T17:19:07.356Z,4.28
2023-03-06T17:21:35.407Z,3.80
2023-03-06T17:24:03.878Z,3.47
2023-03-06T17:26:30.805Z,35.00
2023-03-06T17:28:57.575Z,22.92
2023-03-06T17:31:26.678Z,47.53
2023-03-06T17:33:57.107Z,12.90
2023-03-06T17:36:23.876Z,8.52
2023-03-06T17:38:50.891Z,4.53
2023-03-06T17:41:17.616Z,8.75
2023-03-06T17:43:44.356Z,15.52
2023-03-06T17:46:13.378Z,18.40
2023-03-06T17:48:40.609Z,31.23
2023-03-06T17:51:08.317Z,6.10
2023-03-06T17:53:35.314Z,6.00
2023-03-06T17:56:08.087Z,5.97
2023-03-06T17:58:35.670Z,5.50
2023-03-06T18:01:10.836Z,5.70
2023-03-06T18:03:38.726Z,5.20
2023-03-06T18:06:09.345Z,5.25
2023-03-06T18:08:37.258Z,5.22
2023-03-06T18:11:06.964Z,4.90
2023-03-06T18:13:35.117Z,4.72
2023-03-06T18:16:02.450Z,4.72
2023-03-06T18:18:29.502Z,4.97
2023-03-06T18:20:56.588Z,4.55
2023-03-06T18:23:23.716Z,4.65
2023-03-06T18:25:50.620Z,4.63
2023-03-06T18:28:17.450Z,4.90
2023-03-06T18:30:44.246Z,4.60
2023-03-06T18:33:11.041Z,4.85
2023-03-06T18:35:37.846Z,5.90
2023-03-06T18:38:04.718Z,5.25
2023-03-06T18:40:31.515Z,5.03
2023-03-06T18:42:58.483Z,5.32
2023-03-06T18:45:25.284Z,5.35
2023-03-06T18:47:52.249Z,5.55
2023-03-06T18:50:19.121Z,5.35
2023-03-06T18:52:46.457Z,5.35
2023-03-06T18:55:13.206Z,5.15
2023-03-06T18:57:40.087Z,5.88
2023-03-06T19:00:07.795Z,5.78
2023-03-06T19:02:34.580Z,5.57
2023-03-06T19:05:01.288Z,5.47
2023-03-06T19:07:28.236Z,5.47
2023-03-06T19:09:55.050Z,5.90
2023-03-06T19:12:21.899Z,6.30
2023-03-06T19:14:48.738Z,6.05
2023-03-06T19:17:16.526Z,6.30
2023-03-06T19:19:43.430Z,7.13
2023-03-06T19:22:10.568Z,7.00
2023-03-06T19:24:37.289Z,7.25
2023-03-06T19:27:04.245Z,7.05
2023-03-06T19:29:32.479Z,6.60
2023-03-06T19:31:59.369Z,6.35
2023-03-06T19:34:26.219Z,6.53
2023-03-06T19:36:53.065Z,6.10
2023-03-06T19:39:19.900Z,6.88
2023-03-06T19:41:47.838Z,6.43
2023-03-06T19:44:16.193Z,7.32
2023-03-06T19:46:43.525Z,6.50
2023-03-06T19:49:16.802Z,6.65
2023-03-06T19:51:44.545Z,6.43
2023-03-06T19:54:12.620Z,6.55
2023-03-06T19:56:39.769Z,6.57
2023-03-06T19:59:06.638Z,6.75
2023-03-06T20:01:34.325Z,6.80
2023-03-06T20:04:01.502Z,8.50
2023-03-06T20:06:31.131Z,8.75
2023-03-06T20:08:58.236Z,8.65
2023-03-06T20:11:29.771Z,8.55
2023-03-06T20:13:58.622Z,8.13
2023-03-06T20:16:28.022Z,8.23
2023-03-06T20:18:58.022Z,8.63
2023-03-06T20:21:25.849Z,8.48
2023-03-06T20:23:54.486Z,8.05
2023-03-06T20:26:21.459Z,8.55
2023-03-06T20:28:48.522Z,9.13
2023-03-06T20:31:17.729Z,9.48
2023-03-06T20:33:50.030Z,9.63
2023-03-06T20:36:19.875Z,9.82
2023-03-06T20:38:47.428Z,57.80
2023-03-06T20:41:16.068Z,32.30
2023-03-06T20:43:42.868Z,19.10
2023-03-06T20:46:11.258Z,52.10
2023-03-06T20:48:38.909Z,27.38
2023-03-06T20:51:16.233Z,34.83
2023-03-06T20:53:43.059Z,21.38
2023-03-06T20:56:14.620Z,51.58
2023-03-06T20:58:41.377Z,37.90
2023-03-06T21:01:08.357Z,20.20
2023-03-06T21:03:35.164Z,13.48
2023-03-06T21:06:01.911Z,11.63
2023-03-06T21:08:28.734Z,10.68
2023-03-06T21:10:55.421Z,12.40
2023-03-06T21:13:22.147Z,11.60
2023-03-06T21:15:48.954Z,11.95
2023-03-06T21:18:15.724Z,12.10
2023-03-06T21:20:43.125Z,12.32
2023-03-06T21:23:09.937Z,13.40
2023-03-06T21:25:36.684Z,12.13
2023-03-06T21:28:03.443Z,13.30
2023-03-06T21:30:30.264Z,13.73
2023-03-06T21:32:57.020Z,13.20
2023-03-06T21:35:23.770Z,13.63
2023-03-06T21:37:51.173Z,14.13
2023-03-06T21:40:18.331Z,15.07
2023-03-06T21:42:45.264Z,16.25
2023-03-06T21:45:12.104Z,14.93
2023-03-06T21:47:40.758Z,14.68
2023-03-06T21:50:09.844Z,14.43
2023-03-06T21:52:36.985Z,14.52
2023-03-06T21:55:03.995Z,15.75
2023-03-06T21:57:31.174Z,15.60
2023-03-06T21:59:58.104Z,14.85
2023-03-06T22:02:25.034Z,15.13
2023-03-06T22:04:53.245Z,15.73
2023-03-06T22:07:20.704Z,16.05
2023-03-06T22:09:47.655Z,16.70
2023-03-06T22:12:14.818Z,16.50
2023-03-06T22:14:43.901Z,16.02
2023-03-06T22:17:10.881Z,16.88
2023-03-06T22:19:37.683Z,16.92
2023-03-06T22:22:04.840Z,16.15
2023-03-06T22:24:32.919Z,16.60
2023-03-06T22:26:59.980Z,16.10
2023-03-06T22:29:27.081Z,16.85
2023-03-06T22:31:54.078Z,16.88
2023-03-06T22:34:20.949Z,67.25
2023-03-06T22:36:48.357Z,24.92
2023-03-06T22:39:15.355Z,36.25
2023-03-06T22:41:42.865Z,58.47
2023-03-06T22:44:14.471Z,54.85
2023-03-06T22:46:42.952Z,18.50
2023-03-06T22:49:12.493Z,17.35
2023-03-06T22:51:41.061Z,16.75
2023-03-06T22:54:09.248Z,15.20
2023-03-06T22:56:36.561Z,16.25
2023-03-06T22:59:04.356Z,15.48
2023-03-06T23:01:33.971Z,15.38
2023-03-06T23:04:10.766Z,15.93
2023-03-06T23:06:39.925Z,15.50
2023-03-06T23:09:14.531Z,15.60
2023-03-06T23:11:59.904Z,15.05
2023-03-06T23:14:49.512Z,15.98
2023-03-06T23:17:35.407Z,14.38
2023-03-06T23:20:20.860Z,14.88
2023-03-06T23:23:06.377Z,14.77
2023-03-06T23:25:43.633Z,15.35
2023-03-06T23:28:11.743Z,15.70
2023-03-06T23:30:39.544Z,15.98
2023-03-06T23:33:06.663Z,16.48
2023-03-06T23:35:34.885Z,15.90
2023-03-06T23:38:05.078Z,15.57
2023-03-06T23:40:33.572Z,15.60
2023-03-06T23:43:00.444Z,15.88
2023-03-06T23:45:27.483Z,15.70
2023-03-06T23:47:54.416Z,15.27
2023-03-06T23:50:22.966Z,14.57
2023-03-06T23:52:52.461Z,16.58
2023-03-06T23:55:19.456Z,15.70
2023-03-06T23:57:46.640Z,16.02
